sensor_id;sensor_type;location;lat;lon;timestamp;P1;durP1;ratioP1;P2;durP2;ratioP2
50689;SDS011;54375;48.298;11.238;2022-11-15T00:02:43;13.57;;;8.07;;
50689;SDS011;54375;48.298;11.238;2022-11-15T00:05:45;10.38;;;7.20;;
50689;SDS011;54375;48.298;11.238;2022-11-15T00:08:47;11.18;;;7.32;;
50689;SDS011;54375;48.298;11.238;2022-11-15T00:11:48;11.80;;;8.15;;
50689;SDS011;54375;48.298;11.238;2022-11-15T00:14:51;12.77;;;8.00;;
50689;SDS011;54375;48.298;11.238;2022-11-15T00:17:52;11.45;;;8.07;;
50689;SDS011;54375;48.298;11.238;2022-11-15T00:20:54;12.18;;;8.00;;
50689;SDS011;54375;48.298;11.238;2022-11-15T00:23:56;11.75;;;7.78;;
50689;SDS011;54375;48.298;11.238;2022-11-15T00:26:59;12.85;;;8.75;;
50689;SDS011;54375;48.298;11.238;2022-11-15T00:30:00;12.75;;;8.60;;
50689;SDS011;54375;48.298;11.238;2022-11-15T00:33:01;17.17;;;9.63;;
50689;SDS011;54375;48.298;11.238;2022-11-15T00:36:05;11.50;;;7.85;;
50689;SDS011;54375;48.298;11.238;2022-11-15T00:39:07;14.10;;;7.55;;
50689;SDS011;54375;48.298;11.238;2022-11-15T00:42:08;12.23;;;7.45;;
50689;SDS011;54375;48.298;11.238;2022-11-15T00:45:09;13.68;;;7.60;;
50689;SDS011;54375;48.298;11.238;2022-11-15T00:48:10;16.30;;;10.35;;
50689;SDS011;54375;48.298;11.238;2022-11-15T00:51:13;19.33;;;12.32;;
50689;SDS011;54375;48.298;11.238;2022-11-15T00:54:14;20.65;;;13.10;;
50689;SDS011;54375;48.298;11.238;2022-11-15T00:57:15;18.13;;;10.68;;
50689;SDS011;54375;48.298;11.238;2022-11-15T01:00:17;16.55;;;10.40;;
50689;SDS011;54375;48.298;11.238;2022-11-15T01:03:18;17.10;;;9.97;;
50689;SDS011;54375;48.298;11.238;2022-11-15T01:06:20;13.38;;;8.35;;
50689;SDS011;54375;48.298;11.238;2022-11-15T01:09:22;13.75;;;9.15;;
50689;SDS011;54375;48.298;11.238;2022-11-15T01:12:22;12.45;;;8.23;;
50689;SDS011;54375;48.298;11.238;2022-11-15T01:15:23;16.30;;;10.05;;
50689;SDS011;54375;48.298;11.238;2022-11-15T01:18:24;14.38;;;9.32;;
50689;SDS011;54375;48.298;11.238;2022-11-15T01:21:27;14.52;;;8.48;;
50689;SDS011;54375;48.298;11.238;2022-11-15T01:24:29;13.15;;;8.25;;
50689;SDS011;54375;48.298;11.238;2022-11-15T01:27:30;14.50;;;9.13;;
50689;SDS011;54375;48.298;11.238;2022-11-15T01:30:31;17.63;;;10.80;;
50689;SDS011;54375;48.298;11.238;2022-11-15T01:33:34;16.90;;;10.93;;
50689;SDS011;54375;48.298;11.238;2022-11-15T01:36:37;12.40;;;8.73;;
50689;SDS011;54375;48.298;11.238;2022-11-15T01:39:39;16.75;;;10.43;;
50689;SDS011;54375;48.298;11.238;2022-11-15T01:42:40;15.83;;;9.87;;
50689;SDS011;54375;48.298;11.238;2022-11-15T01:45:41;14.38;;;10.27;;
50689;SDS011;54375;48.298;11.238;2022-11-15T01:48:49;15.82;;;9.45;;
50689;SDS011;54375;48.298;11.238;2022-11-15T01:51:54;17.15;;;10.07;;
50689;SDS011;54375;48.298;11.238;2022-11-15T01:54:56;21.67;;;10.82;;
50689;SDS011;54375;48.298;11.238;2022-11-15T01:58:03;17.10;;;10.20;;
50689;SDS011;54375;48.298;11.238;2022-11-15T02:01:05;16.48;;;9.75;;
50689;SDS011;54375;48.298;11.238;2022-11-15T02:04:07;13.55;;;8.80;;
50689;SDS011;54375;48.298;11.238;2022-11-15T02:07:14;14.45;;;10.18;;
50689;SDS011;54375;48.298;11.238;2022-11-15T02:10:18;14.23;;;9.63;;
50689;SDS011;54375;48.298;11.238;2022-11-15T02:13:21;14.85;;;9.30;;
50689;SDS011;54375;48.298;11.238;2022-11-15T02:16:25;16.33;;;10.80;;
50689;SDS011;54375;48.298;11.238;2022-11-15T02:19:38;14.18;;;9.93;;
50689;SDS011;54375;48.298;11.238;2022-11-15T02:23:00;12.57;;;8.40;;
50689;SDS011;54375;48.298;11.238;2022-11-15T02:26:22;15.57;;;8.65;;
50689;SDS011;54375;48.298;11.238;2022-11-15T02:29:44;12.38;;;8.52;;
50689;SDS011;54375;48.298;11.238;2022-11-15T02:33:02;12.80;;;8.68;;
50689;SDS011;54375;48.298;11.238;2022-11-15T02:36:11;13.83;;;9.53;;
50689;SDS011;54375;48.298;11.238;2022-11-15T02:39:18;11.07;;;7.75;;
50689;SDS011;54375;48.298;11.238;2022-11-15T02:42:28;15.15;;;9.88;;
50689;SDS011;54375;48.298;11.238;2022-11-15T02:45:35;17.23;;;9.27;;
50689;SDS011;54375;48.298;11.238;2022-11-15T02:48:41;15.95;;;9.40;;
50689;SDS011;54375;48.298;11.238;2022-11-15T02:51:43;12.75;;;8.13;;
50689;SDS011;54375;48.298;11.238;2022-11-15T02:54:52;15.77;;;9.65;;
50689;SDS011;54375;48.298;11.238;2022-11-15T02:57:57;13.38;;;8.50;;
50689;SDS011;54375;48.298;11.238;2022-11-15T03:01:12;17.50;;;8.65;;
50689;SDS011;54375;48.298;11.238;2022-11-15T03:04:27;15.38;;;9.77;;
50689;SDS011;54375;48.298;11.238;2022-11-15T03:07:34;15.25;;;8.43;;
50689;SDS011;54375;48.298;11.238;2022-11-15T03:10:42;13.10;;;8.70;;
50689;SDS011;54375;48.298;11.238;2022-11-15T03:17:01;12.70;;;7.50;;
50689;SDS011;54375;48.298;11.238;2022-11-15T03:20:10;13.63;;;8.13;;
50689;SDS011;54375;48.298;11.238;2022-11-15T03:23:15;14.70;;;8.60;;
50689;SDS011;54375;48.298;11.238;2022-11-15T03:26:18;12.48;;;7.93;;
50689;SDS011;54375;48.298;11.238;2022-11-15T03:29:22;15.20;;;9.10;;
50689;SDS011;54375;48.298;11.238;2022-11-15T03:32:28;14.65;;;9.65;;
50689;SDS011;54375;48.298;11.238;2022-11-15T03:35:35;19.40;;;10.63;;
50689;SDS011;54375;48.298;11.238;2022-11-15T03:38:40;17.73;;;10.65;;
50689;SDS011;54375;48.298;11.238;2022-11-15T03:41:46;14.93;;;10.23;;
50689;SDS011;54375;48.298;11.238;2022-11-15T03:44:51;17.63;;;10.38;;
50689;SDS011;54375;48.298;11.238;2022-11-15T03:48:01;26.45;;;11.38;;
50689;SDS011;54375;48.298;11.238;2022-11-15T03:51:09;11.75;;;7.90;;
50689;SDS011;54375;48.298;11.238;2022-11-15T03:54:11;12.52;;;8.00;;
50689;SDS011;54375;48.298;11.238;2022-11-15T03:57:13;16.50;;;9.57;;
50689;SDS011;54375;48.298;11.238;2022-11-15T04:00:15;13.03;;;8.20;;
50689;SDS011;54375;48.298;11.238;2022-11-15T04:03:16;11.63;;;7.38;;
50689;SDS011;54375;48.298;11.238;2022-11-15T04:06:18;13.55;;;9.02;;
50689;SDS011;54375;48.298;11.238;2022-11-15T04:09:19;14.35;;;9.38;;
50689;SDS011;54375;48.298;11.238;2022-11-15T04:12:21;16.70;;;11.25;;
50689;SDS011;54375;48.298;11.238;2022-11-15T04:15:23;17.60;;;9.55;;
50689;SDS011;54375;48.298;11.238;2022-11-15T04:18:24;16.38;;;9.57;;
50689;SDS011;54375;48.298;11.238;2022-11-15T04:21:26;13.68;;;9.02;;
50689;SDS011;54375;48.298;11.238;2022-11-15T04:24:27;13.30;;;8.10;;
50689;SDS011;54375;48.298;11.238;2022-11-15T04:27:29;13.82;;;8.63;;
50689;SDS011;54375;48.298;11.238;2022-11-15T04:30:29;14.65;;;8.63;;
50689;SDS011;54375;48.298;11.238;2022-11-15T04:33:30;10.95;;;7.50;;
50689;SDS011;54375;48.298;11.238;2022-11-15T04:36:33;11.75;;;7.57;;
50689;SDS011;54375;48.298;11.238;2022-11-15T04:39:34;12.63;;;7.88;;
50689;SDS011;54375;48.298;11.238;2022-11-15T04:42:35;16.70;;;9.65;;
50689;SDS011;54375;48.298;11.238;2022-11-15T04:45:36;14.95;;;9.90;;
50689;SDS011;54375;48.298;11.238;2022-11-15T04:48:37;16.08;;;10.40;;
50689;SDS011;54375;48.298;11.238;2022-11-15T04:51:39;17.20;;;10.05;;
50689;SDS011;54375;48.298;11.238;2022-11-15T04:54:41;15.50;;;9.70;;
50689;SDS011;54375;48.298;11.238;2022-11-15T04:57:41;14.88;;;9.30;;
50689;SDS011;54375;48.298;11.238;2022-11-15T05:00:42;19.40;;;11.23;;
50689;SDS011;54375;48.298;11.238;2022-11-15T05:03:43;14.55;;;8.82;;
50689;SDS011;54375;48.298;11.238;2022-11-15T05:06:46;13.55;;;8.85;;
50689;SDS011;54375;48.298;11.238;2022-11-15T05:09:48;13.52;;;8.30;;
50689;SDS011;54375;48.298;11.238;2022-11-15T05:12:49;11.02;;;7.60;;
50689;SDS011;54375;48.298;11.238;2022-11-15T05:15:50;11.55;;;7.35;;
50689;SDS011;54375;48.298;11.238;2022-11-15T05:18:51;11.38;;;7.35;;
50689;SDS011;54375;48.298;11.238;2022-11-15T05:21:53;15.00;;;9.13;;
50689;SDS011;54375;48.298;11.238;2022-11-15T05:27:55;10.13;;;6.32;;
50689;SDS011;54375;48.298;11.238;2022-11-15T05:31:00;13.68;;;8.40;;
50689;SDS011;54375;48.298;11.238;2022-11-15T05:34:01;12.48;;;7.40;;
50689;SDS011;54375;48.298;11.238;2022-11-15T05:37:06;12.48;;;6.85;;
50689;SDS011;54375;48.298;11.238;2022-11-15T05:40:07;12.35;;;7.45;;
50689;SDS011;54375;48.298;11.238;2022-11-15T05:43:08;12.38;;;8.35;;
50689;SDS011;54375;48.298;11.238;2022-11-15T05:49:13;12.20;;;7.40;;
50689;SDS011;54375;48.298;11.238;2022-11-15T05:52:18;15.93;;;8.10;;
50689;SDS011;54375;48.298;11.238;2022-11-15T05:55:22;13.13;;;8.50;;
50689;SDS011;54375;48.298;11.238;2022-11-15T05:58:23;16.52;;;9.60;;
50689;SDS011;54375;48.298;11.238;2022-11-15T06:01:24;15.88;;;8.88;;
50689;SDS011;54375;48.298;11.238;2022-11-15T06:04:26;15.65;;;9.38;;
50689;SDS011;54375;48.298;11.238;2022-11-15T06:07:29;15.52;;;9.32;;
50689;SDS011;54375;48.298;11.238;2022-11-15T06:10:31;12.93;;;8.05;;
50689;SDS011;54375;48.298;11.238;2022-11-15T06:13:32;17.27;;;10.20;;
50689;SDS011;54375;48.298;11.238;2022-11-15T06:16:34;15.15;;;9.18;;
50689;SDS011;54375;48.298;11.238;2022-11-15T06:19:35;16.38;;;9.73;;
50689;SDS011;54375;48.298;11.238;2022-11-15T06:22:37;13.90;;;8.45;;
50689;SDS011;54375;48.298;11.238;2022-11-15T06:25:38;17.90;;;9.98;;
50689;SDS011;54375;48.298;11.238;2022-11-15T06:28:39;13.20;;;9.13;;
50689;SDS011;54375;48.298;11.238;2022-11-15T06:31:40;19.60;;;11.93;;
50689;SDS011;54375;48.298;11.238;2022-11-15T06:34:41;15.20;;;10.23;;
50689;SDS011;54375;48.298;11.238;2022-11-15T06:37:43;17.33;;;9.38;;
50689;SDS011;54375;48.298;11.238;2022-11-15T06:40:44;14.23;;;8.85;;
50689;SDS011;54375;48.298;11.238;2022-11-15T06:43:45;14.95;;;8.80;;
50689;SDS011;54375;48.298;11.238;2022-11-15T06:46:46;11.77;;;7.57;;
50689;SDS011;54375;48.298;11.238;2022-11-15T06:49:47;14.00;;;8.30;;
50689;SDS011;54375;48.298;11.238;2022-11-15T06:52:49;14.93;;;8.95;;
50689;SDS011;54375;48.298;11.238;2022-11-15T06:55:50;15.43;;;9.18;;
50689;SDS011;54375;48.298;11.238;2022-11-15T06:58:51;13.88;;;8.55;;
50689;SDS011;54375;48.298;11.238;2022-11-15T07:01:52;16.63;;;9.75;;
50689;SDS011;54375;48.298;11.238;2022-11-15T07:04:53;20.15;;;11.30;;
50689;SDS011;54375;48.298;11.238;2022-11-15T07:07:56;17.70;;;11.18;;
50689;SDS011;54375;48.298;11.238;2022-11-15T07:10:58;22.17;;;13.57;;
50689;SDS011;54375;48.298;11.238;2022-11-15T07:13:59;17.85;;;12.27;;
50689;SDS011;54375;48.298;11.238;2022-11-15T07:17:02;21.10;;;13.77;;
50689;SDS011;54375;48.298;11.238;2022-11-15T07:20:04;28.23;;;17.65;;
50689;SDS011;54375;48.298;11.238;2022-11-15T07:23:07;20.02;;;12.82;;
50689;SDS011;54375;48.298;11.238;2022-11-15T07:26:08;19.42;;;10.88;;
50689;SDS011;54375;48.298;11.238;2022-11-15T07:29:09;19.27;;;11.77;;
50689;SDS011;54375;48.298;11.238;2022-11-15T07:32:10;17.75;;;10.90;;
50689;SDS011;54375;48.298;11.238;2022-11-15T07:35:11;17.75;;;10.65;;
50689;SDS011;54375;48.298;11.238;2022-11-15T07:38:14;13.88;;;8.52;;
50689;SDS011;54375;48.298;11.238;2022-11-15T07:41:15;17.08;;;10.35;;
50689;SDS011;54375;48.298;11.238;2022-11-15T07:44:16;14.93;;;9.25;;
50689;SDS011;54375;48.298;11.238;2022-11-15T07:47:17;12.95;;;9.02;;
50689;SDS011;54375;48.298;11.238;2022-11-15T07:50:19;15.43;;;8.98;;
50689;SDS011;54375;48.298;11.238;2022-11-15T07:53:21;17.73;;;10.33;;
50689;SDS011;54375;48.298;11.238;2022-11-15T07:56:22;22.40;;;13.38;;
50689;SDS011;54375;48.298;11.238;2022-11-15T07:59:23;18.75;;;11.40;;
50689;SDS011;54375;48.298;11.238;2022-11-15T08:02:24;20.77;;;13.30;;
50689;SDS011;54375;48.298;11.238;2022-11-15T08:05:25;22.23;;;14.43;;
50689;SDS011;54375;48.298;11.238;2022-11-15T08:08:28;17.93;;;12.03;;
50689;SDS011;54375;48.298;11.238;2022-11-15T08:14:29;18.60;;;10.48;;
50689;SDS011;54375;48.298;11.238;2022-11-15T08:17:30;13.82;;;9.50;;
50689;SDS011;54375;48.298;11.238;2022-11-15T08:20:31;17.60;;;10.70;;
50689;SDS011;54375;48.298;11.238;2022-11-15T08:23:34;20.95;;;11.18;;
50689;SDS011;54375;48.298;11.238;2022-11-15T08:29:35;15.32;;;9.70;;
50689;SDS011;54375;48.298;11.238;2022-11-15T08:32:36;19.83;;;12.93;;
50689;SDS011;54375;48.298;11.238;2022-11-15T08:35:37;22.10;;;13.52;;
50689;SDS011;54375;48.298;11.238;2022-11-15T08:38:40;18.33;;;11.77;;
50689;SDS011;54375;48.298;11.238;2022-11-15T08:41:41;17.80;;;12.88;;
50689;SDS011;54375;48.298;11.238;2022-11-15T08:44:42;18.10;;;13.40;;
50689;SDS011;54375;48.298;11.238;2022-11-15T08:47:43;17.58;;;11.48;;
50689;SDS011;54375;48.298;11.238;2022-11-15T08:50:44;12.77;;;9.65;;
50689;SDS011;54375;48.298;11.238;2022-11-15T08:53:46;14.32;;;10.52;;
50689;SDS011;54375;48.298;11.238;2022-11-15T08:56:47;14.65;;;10.23;;
50689;SDS011;54375;48.298;11.238;2022-11-15T08:59:48;14.50;;;9.98;;
50689;SDS011;54375;48.298;11.238;2022-11-15T09:02:49;15.93;;;10.17;;
50689;SDS011;54375;48.298;11.238;2022-11-15T09:05:53;16.38;;;9.15;;
50689;SDS011;54375;48.298;11.238;2022-11-15T09:08:56;11.68;;;8.07;;
50689;SDS011;54375;48.298;11.238;2022-11-15T09:11:57;13.50;;;8.90;;
50689;SDS011;54375;48.298;11.238;2022-11-15T09:14:58;16.15;;;10.25;;
50689;SDS011;54375;48.298;11.238;2022-11-15T09:17:59;12.60;;;9.00;;
50689;SDS011;54375;48.298;11.238;2022-11-15T09:21:00;15.70;;;8.75;;
50689;SDS011;54375;48.298;11.238;2022-11-15T09:24:02;13.35;;;8.32;;
50689;SDS011;54375;48.298;11.238;2022-11-15T09:27:04;13.00;;;8.25;;
50689;SDS011;54375;48.298;11.238;2022-11-15T09:30:05;9.32;;;6.93;;
50689;SDS011;54375;48.298;11.238;2022-11-15T09:36:08;9.95;;;7.05;;
50689;SDS011;54375;48.298;11.238;2022-11-15T09:39:12;9.35;;;6.75;;
50689;SDS011;54375;48.298;11.238;2022-11-15T09:42:21;9.07;;;6.82;;
50689;SDS011;54375;48.298;11.238;2022-11-15T09:45:28;9.18;;;6.50;;
50689;SDS011;54375;48.298;11.238;2022-11-15T09:51:52;8.85;;;6.15;;
50689;SDS011;54375;48.298;11.238;2022-11-15T09:54:56;8.27;;;5.78;;
50689;SDS011;54375;48.298;11.238;2022-11-15T09:57:58;8.43;;;5.40;;
50689;SDS011;54375;48.298;11.238;2022-11-15T10:01:08;8.52;;;5.18;;
50689;SDS011;54375;48.298;11.238;2022-11-15T10:04:15;8.55;;;5.35;;
50689;SDS011;54375;48.298;11.238;2022-11-15T10:07:18;7.50;;;5.55;;
50689;SDS011;54375;48.298;11.238;2022-11-15T10:10:25;7.63;;;5.47;;
50689;SDS011;54375;48.298;11.238;2022-11-15T10:13:31;8.27;;;6.00;;
50689;SDS011;54375;48.298;11.238;2022-11-15T10:16:49;7.18;;;5.45;;
50689;SDS011;54375;48.298;11.238;2022-11-15T10:20:06;8.75;;;6.47;;
50689;SDS011;54375;48.298;11.238;2022-11-15T10:23:16;10.57;;;6.88;;
50689;SDS011;54375;48.298;11.238;2022-11-15T10:26:20;8.85;;;6.38;;
50689;SDS011;54375;48.298;11.238;2022-11-15T10:29:24;8.60;;;6.85;;
50689;SDS011;54375;48.298;11.238;2022-11-15T10:35:27;8.43;;;6.03;;
50689;SDS011;54375;48.298;11.238;2022-11-15T10:38:30;7.80;;;5.78;;
50689;SDS011;54375;48.298;11.238;2022-11-15T10:41:38;10.27;;;5.93;;
50689;SDS011;54375;48.298;11.238;2022-11-15T10:44:42;7.00;;;5.53;;
50689;SDS011;54375;48.298;11.238;2022-11-15T10:47:43;12.55;;;6.05;;
50689;SDS011;54375;48.298;11.238;2022-11-15T10:50:45;7.00;;;5.17;;
50689;SDS011;54375;48.298;11.238;2022-11-15T10:53:47;9.32;;;6.03;;
50689;SDS011;54375;48.298;11.238;2022-11-15T10:56:51;8.30;;;5.80;;
50689;SDS011;54375;48.298;11.238;2022-11-15T10:59:55;9.38;;;5.03;;
50689;SDS011;54375;48.298;11.238;2022-11-15T11:03:00;6.22;;;4.53;;
50689;SDS011;54375;48.298;11.238;2022-11-15T11:06:03;7.65;;;5.45;;
50689;SDS011;54375;48.298;11.238;2022-11-15T11:09:09;8.02;;;4.80;;
50689;SDS011;54375;48.298;11.238;2022-11-15T11:15:33;6.45;;;4.97;;
50689;SDS011;54375;48.298;11.238;2022-11-15T11:18:36;8.23;;;4.95;;
50689;SDS011;54375;48.298;11.238;2022-11-15T11:21:44;6.95;;;4.88;;
50689;SDS011;54375;48.298;11.238;2022-11-15T11:24:54;8.00;;;5.45;;
50689;SDS011;54375;48.298;11.238;2022-11-15T11:28:17;6.88;;;4.70;;
50689;SDS011;54375;48.298;11.238;2022-11-15T11:31:30;7.45;;;5.00;;
50689;SDS011;54375;48.298;11.238;2022-11-15T11:34:40;7.93;;;5.00;;
50689;SDS011;54375;48.298;11.238;2022-11-15T11:37:51;7.30;;;4.47;;
50689;SDS011;54375;48.298;11.238;2022-11-15T11:40:58;9.93;;;4.82;;
50689;SDS011;54375;48.298;11.238;2022-11-15T11:44:10;9.10;;;5.43;;
50689;SDS011;54375;48.298;11.238;2022-11-15T11:47:19;7.03;;;5.40;;
50689;SDS011;54375;48.298;11.238;2022-11-15T11:50:24;7.47;;;4.78;;
50689;SDS011;54375;48.298;11.238;2022-11-15T11:53:29;8.60;;;4.95;;
50689;SDS011;54375;48.298;11.238;2022-11-15T11:56:36;9.90;;;5.00;;
50689;SDS011;54375;48.298;11.238;2022-11-15T11:59:43;8.00;;;4.78;;
50689;SDS011;54375;48.298;11.238;2022-11-15T12:02:50;9.68;;;4.85;;
50689;SDS011;54375;48.298;11.238;2022-11-15T12:06:04;8.50;;;5.22;;
50689;SDS011;54375;48.298;11.238;2022-11-15T12:09:12;7.60;;;4.72;;
50689;SDS011;54375;48.298;11.238;2022-11-15T12:12:17;7.57;;;4.72;;
50689;SDS011;54375;48.298;11.238;2022-11-15T12:15:25;10.02;;;4.65;;
50689;SDS011;54375;48.298;11.238;2022-11-15T12:18:28;8.00;;;4.47;;
50689;SDS011;54375;48.298;11.238;2022-11-15T12:21:32;6.32;;;4.60;;
50689;SDS011;54375;48.298;11.238;2022-11-15T12:24:41;9.10;;;4.45;;
50689;SDS011;54375;48.298;11.238;2022-11-15T12:27:46;8.30;;;4.57;;
50689;SDS011;54375;48.298;11.238;2022-11-15T12:30:53;6.88;;;4.68;;
50689;SDS011;54375;48.298;11.238;2022-11-15T12:33:57;8.75;;;4.60;;
50689;SDS011;54375;48.298;11.238;2022-11-15T12:36:59;7.13;;;4.25;;
50689;SDS011;54375;48.298;11.238;2022-11-15T12:40:04;8.95;;;4.38;;
50689;SDS011;54375;48.298;11.238;2022-11-15T12:47:01;6.55;;;4.18;;
50689;SDS011;54375;48.298;11.238;2022-11-15T12:50:04;7.85;;;3.92;;
50689;SDS011;54375;48.298;11.238;2022-11-15T12:53:28;6.90;;;4.10;;
50689;SDS011;54375;48.298;11.238;2022-11-15T12:56:30;6.63;;;4.15;;
50689;SDS011;54375;48.298;11.238;2022-11-15T12:59:50;6.40;;;4.30;;
50689;SDS011;54375;48.298;11.238;2022-11-15T13:02:55;5.40;;;3.72;;
50689;SDS011;54375;48.298;11.238;2022-11-15T13:06:34;6.78;;;4.43;;
50689;SDS011;54375;48.298;11.238;2022-11-15T13:12:57;8.85;;;4.80;;
50689;SDS011;54375;48.298;11.238;2022-11-15T13:16:00;6.55;;;4.75;;
50689;SDS011;54375;48.298;11.238;2022-11-15T13:19:03;7.78;;;4.68;;
50689;SDS011;54375;48.298;11.238;2022-11-15T13:22:05;7.72;;;5.10;;
50689;SDS011;54375;48.298;11.238;2022-11-15T13:25:16;8.57;;;5.50;;
50689;SDS011;54375;48.298;11.238;2022-11-15T13:28:26;7.57;;;4.82;;
50689;SDS011;54375;48.298;11.238;2022-11-15T13:31:34;7.75;;;4.93;;
50689;SDS011;54375;48.298;11.238;2022-11-15T13:34:38;8.85;;;5.20;;
50689;SDS011;54375;48.298;11.238;2022-11-15T13:37:44;7.63;;;4.75;;
50689;SDS011;54375;48.298;11.238;2022-11-15T13:40:45;7.30;;;4.72;;
50689;SDS011;54375;48.298;11.238;2022-11-15T13:43:47;6.97;;;4.88;;
50689;SDS011;54375;48.298;11.238;2022-11-15T13:46:49;9.35;;;5.05;;
50689;SDS011;54375;48.298;11.238;2022-11-15T13:50:02;7.75;;;5.80;;
50689;SDS011;54375;48.298;11.238;2022-11-15T13:53:04;13.68;;;7.85;;
50689;SDS011;54375;48.298;11.238;2022-11-15T13:56:05;10.82;;;6.95;;
50689;SDS011;54375;48.298;11.238;2022-11-15T13:59:10;10.50;;;5.93;;
50689;SDS011;54375;48.298;11.238;2022-11-15T14:02:18;7.85;;;5.20;;
50689;SDS011;54375;48.298;11.238;2022-11-15T14:05:23;7.57;;;4.90;;
50689;SDS011;54375;48.298;11.238;2022-11-15T14:08:25;6.80;;;5.10;;
50689;SDS011;54375;48.298;11.238;2022-11-15T14:11:26;8.63;;;4.82;;
50689;SDS011;54375;48.298;11.238;2022-11-15T14:14:28;7.10;;;5.18;;
50689;SDS011;54375;48.298;11.238;2022-11-15T14:17:34;15.30;;;5.40;;
50689;SDS011;54375;48.298;11.238;2022-11-15T14:20:39;8.52;;;5.38;;
50689;SDS011;54375;48.298;11.238;2022-11-15T14:23:40;8.23;;;5.43;;
50689;SDS011;54375;48.298;11.238;2022-11-15T14:26:40;6.63;;;5.07;;
50689;SDS011;54375;48.298;11.238;2022-11-15T14:29:41;8.10;;;5.80;;
50689;SDS011;54375;48.298;11.238;2022-11-15T14:32:43;7.28;;;4.95;;
50689;SDS011;54375;48.298;11.238;2022-11-15T14:35:47;6.72;;;4.63;;
50689;SDS011;54375;48.298;11.238;2022-11-15T14:38:49;8.77;;;4.65;;
50689;SDS011;54375;48.298;11.238;2022-11-15T14:41:50;10.20;;;4.93;;
50689;SDS011;54375;48.298;11.238;2022-11-15T14:44:51;8.82;;;5.18;;
50689;SDS011;54375;48.298;11.238;2022-11-15T14:47:53;8.07;;;4.90;;
50689;SDS011;54375;48.298;11.238;2022-11-15T14:50:55;7.00;;;4.90;;
50689;SDS011;54375;48.298;11.238;2022-11-15T14:53:57;8.10;;;4.20;;
50689;SDS011;54375;48.298;11.238;2022-11-15T14:56:58;8.57;;;4.23;;
50689;SDS011;54375;48.298;11.238;2022-11-15T14:59:59;6.83;;;4.40;;
50689;SDS011;54375;48.298;11.238;2022-11-15T15:03:00;6.47;;;3.93;;
50689;SDS011;54375;48.298;11.238;2022-11-15T15:12:05;10.00;;;4.38;;
50689;SDS011;54375;48.298;11.238;2022-11-15T15:15:13;6.93;;;4.75;;
50689;SDS011;54375;48.298;11.238;2022-11-15T15:18:16;7.85;;;4.55;;
50689;SDS011;54375;48.298;11.238;2022-11-15T15:24:21;7.00;;;4.78;;
50689;SDS011;54375;48.298;11.238;2022-11-15T15:27:22;7.87;;;4.70;;
50689;SDS011;54375;48.298;11.238;2022-11-15T15:30:24;7.87;;;4.40;;
50689;SDS011;54375;48.298;11.238;2022-11-15T15:33:26;8.05;;;4.65;;
50689;SDS011;54375;48.298;11.238;2022-11-15T15:36:28;6.30;;;4.33;;
50689;SDS011;54375;48.298;11.238;2022-11-15T15:39:29;6.93;;;4.45;;
50689;SDS011;54375;48.298;11.238;2022-11-15T15:42:31;6.18;;;4.30;;
50689;SDS011;54375;48.298;11.238;2022-11-15T15:45:32;7.55;;;4.30;;
50689;SDS011;54375;48.298;11.238;2022-11-15T15:48:33;5.88;;;4.30;;
50689;SDS011;54375;48.298;11.238;2022-11-15T15:51:36;7.77;;;4.60;;
50689;SDS011;54375;48.298;11.238;2022-11-15T15:54:37;7.25;;;4.20;;
50689;SDS011;54375;48.298;11.238;2022-11-15T15:57:38;8.07;;;4.40;;
50689;SDS011;54375;48.298;11.238;2022-11-15T16:00:39;6.18;;;4.15;;
50689;SDS011;54375;48.298;11.238;2022-11-15T16:03:40;6.60;;;4.13;;
50689;SDS011;54375;48.298;11.238;2022-11-15T16:06:42;8.50;;;4.85;;
50689;SDS011;54375;48.298;11.238;2022-11-15T16:09:43;9.00;;;4.68;;
50689;SDS011;54375;48.298;11.238;2022-11-15T16:12:44;7.03;;;4.05;;
50689;SDS011;54375;48.298;11.238;2022-11-15T16:15:45;8.73;;;4.90;;
50689;SDS011;54375;48.298;11.238;2022-11-15T16:18:50;9.50;;;5.05;;
50689;SDS011;54375;48.298;11.238;2022-11-15T16:21:52;8.85;;;5.32;;
50689;SDS011;54375;48.298;11.238;2022-11-15T16:24:53;8.63;;;5.70;;
50689;SDS011;54375;48.298;11.238;2022-11-15T16:27:54;8.50;;;5.63;;
50689;SDS011;54375;48.298;11.238;2022-11-15T16:30:59;10.98;;;6.05;;
50689;SDS011;54375;48.298;11.238;2022-11-15T16:34:01;8.88;;;5.10;;
50689;SDS011;54375;48.298;11.238;2022-11-15T16:37:04;9.20;;;5.05;;
50689;SDS011;54375;48.298;11.238;2022-11-15T16:40:07;7.65;;;4.72;;
50689;SDS011;54375;48.298;11.238;2022-11-15T16:43:17;7.03;;;4.45;;
50689;SDS011;54375;48.298;11.238;2022-11-15T16:46:20;6.95;;;4.40;;
50689;SDS011;54375;48.298;11.238;2022-11-15T16:49:23;8.35;;;4.72;;
50689;SDS011;54375;48.298;11.238;2022-11-15T16:52:25;12.18;;;8.02;;
50689;SDS011;54375;48.298;11.238;2022-11-15T16:55:27;19.02;;;10.95;;
50689;SDS011;54375;48.298;11.238;2022-11-15T16:58:29;14.75;;;9.48;;
50689;SDS011;54375;48.298;11.238;2022-11-15T17:01:30;16.55;;;9.93;;
50689;SDS011;54375;48.298;11.238;2022-11-15T17:04:33;13.77;;;8.52;;
50689;SDS011;54375;48.298;11.238;2022-11-15T17:07:35;15.77;;;9.27;;
50689;SDS011;54375;48.298;11.238;2022-11-15T17:10:37;15.63;;;8.95;;
50689;SDS011;54375;48.298;11.238;2022-11-15T17:13:39;10.90;;;7.13;;
50689;SDS011;54375;48.298;11.238;2022-11-15T17:16:40;12.30;;;6.67;;
50689;SDS011;54375;48.298;11.238;2022-11-15T17:19:41;8.20;;;5.32;;
50689;SDS011;54375;48.298;11.238;2022-11-15T17:22:44;7.63;;;4.63;;
50689;SDS011;54375;48.298;11.238;2022-11-15T17:25:45;7.75;;;4.53;;
50689;SDS011;54375;48.298;11.238;2022-11-15T17:28:46;8.48;;;4.40;;
50689;SDS011;54375;48.298;11.238;2022-11-15T17:31:46;6.50;;;4.40;;
50689;SDS011;54375;48.298;11.238;2022-11-15T17:34:47;12.45;;;5.55;;
50689;SDS011;54375;48.298;11.238;2022-11-15T17:37:49;8.45;;;5.57;;
50689;SDS011;54375;48.298;11.238;2022-11-15T17:44:11;10.80;;;6.57;;
50689;SDS011;54375;48.298;11.238;2022-11-15T17:47:12;15.70;;;10.10;;
50689;SDS011;54375;48.298;11.238;2022-11-15T17:50:13;15.77;;;11.07;;
50689;SDS011;54375;48.298;11.238;2022-11-15T17:53:16;12.43;;;8.00;;
50689;SDS011;54375;48.298;11.238;2022-11-15T17:56:18;10.60;;;6.68;;
50689;SDS011;54375;48.298;11.238;2022-11-15T17:59:20;10.35;;;6.03;;
50689;SDS011;54375;48.298;11.238;2022-11-15T18:02:21;14.00;;;8.77;;
50689;SDS011;54375;48.298;11.238;2022-11-15T18:05:22;16.80;;;10.75;;
50689;SDS011;54375;48.298;11.238;2022-11-15T18:08:25;24.20;;;14.60;;
50689;SDS011;54375;48.298;11.238;2022-11-15T18:11:27;40.53;;;22.10;;
50689;SDS011;54375;48.298;11.238;2022-11-15T18:14:29;52.15;;;27.77;;
50689;SDS011;54375;48.298;11.238;2022-11-15T18:17:30;54.33;;;28.57;;
50689;SDS011;54375;48.298;11.238;2022-11-15T18:20:31;52.88;;;29.17;;
50689;SDS011;54375;48.298;11.238;2022-11-15T18:23:33;83.97;;;42.90;;
50689;SDS011;54375;48.298;11.238;2022-11-15T18:26:34;89.28;;;45.70;;
50689;SDS011;54375;48.298;11.238;2022-11-15T18:29:35;54.88;;;29.25;;
50689;SDS011;54375;48.298;11.238;2022-11-15T18:32:36;60.92;;;33.60;;
50689;SDS011;54375;48.298;11.238;2022-11-15T18:35:37;47.35;;;26.70;;
50689;SDS011;54375;48.298;11.238;2022-11-15T18:38:40;39.55;;;23.58;;
50689;SDS011;54375;48.298;11.238;2022-11-15T18:41:41;48.13;;;27.08;;
50689;SDS011;54375;48.298;11.238;2022-11-15T18:44:43;56.00;;;30.40;;